Terminal Aerodrome Forecast
Issued by NWS Paducah, KY

Home | Current Version | Previous Version | Text Only | Print | Product List | Glossary Off
Versions: 1 2 3 4 5 6 7 8 9 10 11 12 13 14 15 16 17 18

000
FTUS43 KPAH 240300 AAB
TAFEVV
TAF AMD
KEVV 240337Z 2404/2424 35007KT P6SM BKN035
     FM240600 35005KT P6SM SCT035
     FM241500 03008KT P6SM SCT040=

USA.gov is the U.S. government's official web portal to all federal, state and local government web resources and services.